sensor_id;sensor_type;location;lat;lon;timestamp;P1;durP1;ratioP1;P2;durP2;ratioP2
84315;SDS011;74496;52.236;5.164;2024-01-30T00:00:30;11.10;;;9.73;;
84315;SDS011;74496;52.236;5.164;2024-01-30T00:02:57;11.25;;;8.85;;
84315;SDS011;74496;52.236;5.164;2024-01-30T00:05:23;11.88;;;9.13;;
84315;SDS011;74496;52.236;5.164;2024-01-30T00:07:51;14.70;;;8.47;;
84315;SDS011;74496;52.236;5.164;2024-01-30T00:10:18;18.15;;;9.38;;
84315;SDS011;74496;52.236;5.164;2024-01-30T00:12:45;13.52;;;9.93;;
84315;SDS011;74496;52.236;5.164;2024-01-30T00:15:12;14.02;;;9.10;;
84315;SDS011;74496;52.236;5.164;2024-01-30T00:17:40;11.73;;;8.82;;
84315;SDS011;74496;52.236;5.164;2024-01-30T00:20:07;15.83;;;9.03;;
84315;SDS011;74496;52.236;5.164;2024-01-30T00:22:34;15.82;;;8.13;;
84315;SDS011;74496;52.236;5.164;2024-01-30T00:25:02;11.90;;;8.27;;
84315;SDS011;74496;52.236;5.164;2024-01-30T00:27:30;11.68;;;8.85;;
84315;SDS011;74496;52.236;5.164;2024-01-30T00:29:56;12.85;;;8.90;;
84315;SDS011;74496;52.236;5.164;2024-01-30T00:32:23;13.67;;;9.53;;
84315;SDS011;74496;52.236;5.164;2024-01-30T00:34:50;17.42;;;9.00;;
84315;SDS011;74496;52.236;5.164;2024-01-30T00:37:16;15.27;;;8.05;;
84315;SDS011;74496;52.236;5.164;2024-01-30T00:39:43;8.95;;;7.38;;
84315;SDS011;74496;52.236;5.164;2024-01-30T00:42:11;12.90;;;8.23;;
84315;SDS011;74496;52.236;5.164;2024-01-30T00:44:38;11.30;;;8.93;;
84315;SDS011;74496;52.236;5.164;2024-01-30T00:47:05;11.25;;;9.00;;
84315;SDS011;74496;52.236;5.164;2024-01-30T00:49:31;13.32;;;8.85;;
84315;SDS011;74496;52.236;5.164;2024-01-30T00:51:58;10.90;;;9.05;;
84315;SDS011;74496;52.236;5.164;2024-01-30T00:54:25;12.00;;;9.02;;
84315;SDS011;74496;52.236;5.164;2024-01-30T00:56:52;10.53;;;8.33;;
84315;SDS011;74496;52.236;5.164;2024-01-30T00:59:20;12.75;;;8.65;;
84315;SDS011;74496;52.236;5.164;2024-01-30T01:01:47;12.25;;;8.07;;
84315;SDS011;74496;52.236;5.164;2024-01-30T01:04:14;10.95;;;7.95;;
84315;SDS011;74496;52.236;5.164;2024-01-30T01:06:40;15.85;;;8.30;;
84315;SDS011;74496;52.236;5.164;2024-01-30T01:09:09;10.57;;;8.23;;
84315;SDS011;74496;52.236;5.164;2024-01-30T01:11:36;9.35;;;8.23;;
84315;SDS011;74496;52.236;5.164;2024-01-30T01:14:03;12.98;;;8.57;;
84315;SDS011;74496;52.236;5.164;2024-01-30T01:16:31;11.57;;;8.48;;
84315;SDS011;74496;52.236;5.164;2024-01-30T01:18:59;10.20;;;8.68;;
84315;SDS011;74496;52.236;5.164;2024-01-30T01:21:26;12.43;;;8.60;;
84315;SDS011;74496;52.236;5.164;2024-01-30T01:23:53;10.27;;;8.23;;
84315;SDS011;74496;52.236;5.164;2024-01-30T01:26:19;13.27;;;8.13;;
84315;SDS011;74496;52.236;5.164;2024-01-30T01:28:46;10.25;;;7.85;;
84315;SDS011;74496;52.236;5.164;2024-01-30T01:31:13;12.55;;;7.18;;
84315;SDS011;74496;52.236;5.164;2024-01-30T01:33:41;10.40;;;8.20;;
84315;SDS011;74496;52.236;5.164;2024-01-30T01:36:08;13.88;;;8.38;;
84315;SDS011;74496;52.236;5.164;2024-01-30T01:38:35;10.60;;;8.68;;
84315;SDS011;74496;52.236;5.164;2024-01-30T01:41:02;14.02;;;7.47;;
84315;SDS011;74496;52.236;5.164;2024-01-30T01:43:28;12.00;;;8.73;;
84315;SDS011;74496;52.236;5.164;2024-01-30T01:45:55;10.13;;;7.70;;
84315;SDS011;74496;52.236;5.164;2024-01-30T01:48:22;12.98;;;8.20;;
84315;SDS011;74496;52.236;5.164;2024-01-30T01:50:50;10.07;;;7.13;;
84315;SDS011;74496;52.236;5.164;2024-01-30T01:53:18;11.93;;;8.20;;
84315;SDS011;74496;52.236;5.164;2024-01-30T01:55:45;9.15;;;8.15;;
84315;SDS011;74496;52.236;5.164;2024-01-30T01:58:13;15.43;;;8.33;;
84315;SDS011;74496;52.236;5.164;2024-01-30T02:00:41;13.85;;;7.85;;
84315;SDS011;74496;52.236;5.164;2024-01-30T02:03:08;8.55;;;7.47;;
84315;SDS011;74496;52.236;5.164;2024-01-30T02:05:36;10.95;;;7.82;;
84315;SDS011;74496;52.236;5.164;2024-01-30T02:08:05;10.90;;;8.45;;
84315;SDS011;74496;52.236;5.164;2024-01-30T02:10:32;9.77;;;8.00;;
84315;SDS011;74496;52.236;5.164;2024-01-30T02:12:59;11.52;;;7.00;;
84315;SDS011;74496;52.236;5.164;2024-01-30T02:15:26;10.27;;;7.50;;
84315;SDS011;74496;52.236;5.164;2024-01-30T02:17:54;8.63;;;7.80;;
84315;SDS011;74496;52.236;5.164;2024-01-30T02:20:21;10.77;;;7.80;;
84315;SDS011;74496;52.236;5.164;2024-01-30T02:22:51;9.80;;;7.70;;
84315;SDS011;74496;52.236;5.164;2024-01-30T02:25:20;11.82;;;8.25;;
84315;SDS011;74496;52.236;5.164;2024-01-30T02:27:56;9.98;;;7.88;;
84315;SDS011;74496;52.236;5.164;2024-01-30T02:30:23;10.93;;;7.65;;
84315;SDS011;74496;52.236;5.164;2024-01-30T02:32:50;11.30;;;8.23;;
84315;SDS011;74496;52.236;5.164;2024-01-30T02:35:17;9.90;;;7.87;;
84315;SDS011;74496;52.236;5.164;2024-01-30T02:37:43;11.23;;;8.20;;
84315;SDS011;74496;52.236;5.164;2024-01-30T02:40:11;11.32;;;7.65;;
84315;SDS011;74496;52.236;5.164;2024-01-30T02:42:39;9.73;;;7.57;;
84315;SDS011;74496;52.236;5.164;2024-01-30T02:45:07;8.95;;;7.53;;
84315;SDS011;74496;52.236;5.164;2024-01-30T02:47:34;8.70;;;7.60;;
84315;SDS011;74496;52.236;5.164;2024-01-30T02:50:01;8.23;;;6.95;;
84315;SDS011;74496;52.236;5.164;2024-01-30T02:52:28;12.98;;;7.97;;
84315;SDS011;74496;52.236;5.164;2024-01-30T02:54:55;13.55;;;7.45;;
84315;SDS011;74496;52.236;5.164;2024-01-30T02:57:23;9.23;;;7.30;;
84315;SDS011;74496;52.236;5.164;2024-01-30T02:59:50;10.50;;;7.97;;
84315;SDS011;74496;52.236;5.164;2024-01-30T03:02:16;13.27;;;8.30;;
84315;SDS011;74496;52.236;5.164;2024-01-30T03:04:43;9.02;;;7.47;;
84315;SDS011;74496;52.236;5.164;2024-01-30T03:07:09;13.55;;;7.53;;
84315;SDS011;74496;52.236;5.164;2024-01-30T03:09:36;11.30;;;7.33;;
84315;SDS011;74496;52.236;5.164;2024-01-30T03:12:03;9.98;;;7.65;;
84315;SDS011;74496;52.236;5.164;2024-01-30T03:14:32;10.85;;;7.93;;
84315;SDS011;74496;52.236;5.164;2024-01-30T03:16:59;8.90;;;6.97;;
84315;SDS011;74496;52.236;5.164;2024-01-30T03:19:25;10.30;;;7.70;;
84315;SDS011;74496;52.236;5.164;2024-01-30T03:21:52;12.37;;;7.83;;
84315;SDS011;74496;52.236;5.164;2024-01-30T03:24:19;12.00;;;8.07;;
84315;SDS011;74496;52.236;5.164;2024-01-30T03:26:45;12.73;;;7.80;;
84315;SDS011;74496;52.236;5.164;2024-01-30T03:29:12;12.23;;;7.53;;
84315;SDS011;74496;52.236;5.164;2024-01-30T03:31:40;8.57;;;7.20;;
84315;SDS011;74496;52.236;5.164;2024-01-30T03:34:07;10.67;;;7.80;;
84315;SDS011;74496;52.236;5.164;2024-01-30T03:36:34;11.52;;;7.65;;
84315;SDS011;74496;52.236;5.164;2024-01-30T03:39:01;13.13;;;7.75;;
84315;SDS011;74496;52.236;5.164;2024-01-30T03:41:28;12.05;;;6.95;;
84315;SDS011;74496;52.236;5.164;2024-01-30T03:43:55;10.23;;;8.13;;
84315;SDS011;74496;52.236;5.164;2024-01-30T03:46:21;9.97;;;7.80;;
84315;SDS011;74496;52.236;5.164;2024-01-30T03:48:49;9.00;;;7.53;;
84315;SDS011;74496;52.236;5.164;2024-01-30T03:51:16;11.20;;;7.68;;
84315;SDS011;74496;52.236;5.164;2024-01-30T03:53:43;9.38;;;7.38;;
84315;SDS011;74496;52.236;5.164;2024-01-30T03:56:11;12.10;;;7.28;;
84315;SDS011;74496;52.236;5.164;2024-01-30T03:58:39;10.47;;;7.43;;
84315;SDS011;74496;52.236;5.164;2024-01-30T04:01:05;12.20;;;7.40;;
84315;SDS011;74496;52.236;5.164;2024-01-30T04:03:32;9.10;;;7.18;;
84315;SDS011;74496;52.236;5.164;2024-01-30T04:06:00;10.82;;;7.22;;
84315;SDS011;74496;52.236;5.164;2024-01-30T04:08:27;11.60;;;7.60;;
84315;SDS011;74496;52.236;5.164;2024-01-30T04:10:53;7.57;;;6.43;;
84315;SDS011;74496;52.236;5.164;2024-01-30T04:13:20;9.05;;;7.63;;
84315;SDS011;74496;52.236;5.164;2024-01-30T04:15:47;10.38;;;8.13;;
84315;SDS011;74496;52.236;5.164;2024-01-30T04:18:13;10.10;;;6.60;;
84315;SDS011;74496;52.236;5.164;2024-01-30T04:20:40;10.18;;;7.63;;
84315;SDS011;74496;52.236;5.164;2024-01-30T04:23:08;10.77;;;7.50;;
84315;SDS011;74496;52.236;5.164;2024-01-30T04:25:35;7.93;;;7.13;;
84315;SDS011;74496;52.236;5.164;2024-01-30T04:28:02;10.48;;;7.53;;
84315;SDS011;74496;52.236;5.164;2024-01-30T04:30:29;11.25;;;7.80;;
84315;SDS011;74496;52.236;5.164;2024-01-30T04:32:56;10.35;;;7.63;;
84315;SDS011;74496;52.236;5.164;2024-01-30T04:35:23;10.50;;;8.33;;
84315;SDS011;74496;52.236;5.164;2024-01-30T04:37:51;10.23;;;7.80;;
84315;SDS011;74496;52.236;5.164;2024-01-30T04:40:19;8.82;;;7.82;;
84315;SDS011;74496;52.236;5.164;2024-01-30T04:42:46;10.23;;;7.88;;
84315;SDS011;74496;52.236;5.164;2024-01-30T04:45:13;8.73;;;7.55;;
84315;SDS011;74496;52.236;5.164;2024-01-30T04:47:40;9.60;;;7.87;;
84315;SDS011;74496;52.236;5.164;2024-01-30T04:50:07;9.57;;;7.13;;
84315;SDS011;74496;52.236;5.164;2024-01-30T04:52:34;12.02;;;7.65;;
84315;SDS011;74496;52.236;5.164;2024-01-30T04:55:01;10.10;;;8.00;;
84315;SDS011;74496;52.236;5.164;2024-01-30T04:57:29;9.85;;;7.70;;
84315;SDS011;74496;52.236;5.164;2024-01-30T04:59:58;8.47;;;7.57;;
84315;SDS011;74496;52.236;5.164;2024-01-30T05:02:26;14.63;;;8.48;;
84315;SDS011;74496;52.236;5.164;2024-01-30T05:04:53;8.40;;;7.60;;
84315;SDS011;74496;52.236;5.164;2024-01-30T05:07:20;11.35;;;7.25;;
84315;SDS011;74496;52.236;5.164;2024-01-30T05:09:47;11.80;;;7.93;;
84315;SDS011;74496;52.236;5.164;2024-01-30T05:12:13;12.00;;;7.70;;
84315;SDS011;74496;52.236;5.164;2024-01-30T05:14:41;9.02;;;7.05;;
84315;SDS011;74496;52.236;5.164;2024-01-30T05:17:08;8.82;;;7.60;;
84315;SDS011;74496;52.236;5.164;2024-01-30T05:19:37;17.85;;;8.40;;
84315;SDS011;74496;52.236;5.164;2024-01-30T05:22:04;15.70;;;8.43;;
84315;SDS011;74496;52.236;5.164;2024-01-30T05:24:31;8.10;;;7.30;;
84315;SDS011;74496;52.236;5.164;2024-01-30T05:26:58;8.73;;;7.75;;
84315;SDS011;74496;52.236;5.164;2024-01-30T05:29:25;11.00;;;7.03;;
84315;SDS011;74496;52.236;5.164;2024-01-30T05:31:53;12.60;;;7.78;;
84315;SDS011;74496;52.236;5.164;2024-01-30T05:34:20;8.77;;;6.88;;
84315;SDS011;74496;52.236;5.164;2024-01-30T05:36:47;11.63;;;7.73;;
84315;SDS011;74496;52.236;5.164;2024-01-30T05:39:13;11.55;;;7.88;;
84315;SDS011;74496;52.236;5.164;2024-01-30T05:41:40;12.52;;;8.32;;
84315;SDS011;74496;52.236;5.164;2024-01-30T05:44:07;12.02;;;7.95;;
84315;SDS011;74496;52.236;5.164;2024-01-30T05:46:35;13.68;;;8.63;;
84315;SDS011;74496;52.236;5.164;2024-01-30T05:49:03;11.47;;;8.40;;
84315;SDS011;74496;52.236;5.164;2024-01-30T05:51:30;10.20;;;7.28;;
84315;SDS011;74496;52.236;5.164;2024-01-30T05:53:57;10.07;;;7.50;;
84315;SDS011;74496;52.236;5.164;2024-01-30T05:56:24;13.60;;;7.88;;
84315;SDS011;74496;52.236;5.164;2024-01-30T05:58:50;13.15;;;7.47;;
84315;SDS011;74496;52.236;5.164;2024-01-30T06:01:17;8.93;;;7.90;;
84315;SDS011;74496;52.236;5.164;2024-01-30T06:03:44;11.60;;;6.70;;
84315;SDS011;74496;52.236;5.164;2024-01-30T06:06:12;12.82;;;7.55;;
84315;SDS011;74496;52.236;5.164;2024-01-30T06:08:39;8.73;;;7.05;;
84315;SDS011;74496;52.236;5.164;2024-01-30T06:11:05;10.85;;;7.47;;
84315;SDS011;74496;52.236;5.164;2024-01-30T06:13:36;8.30;;;7.40;;
84315;SDS011;74496;52.236;5.164;2024-01-30T06:16:03;10.10;;;7.18;;
84315;SDS011;74496;52.236;5.164;2024-01-30T06:18:31;10.27;;;6.78;;
84315;SDS011;74496;52.236;5.164;2024-01-30T06:20:57;12.48;;;7.68;;
84315;SDS011;74496;52.236;5.164;2024-01-30T06:23:25;9.35;;;7.40;;
84315;SDS011;74496;52.236;5.164;2024-01-30T06:25:52;9.00;;;7.07;;
84315;SDS011;74496;52.236;5.164;2024-01-30T06:28:19;13.13;;;7.70;;
84315;SDS011;74496;52.236;5.164;2024-01-30T06:30:46;10.75;;;7.75;;
84315;SDS011;74496;52.236;5.164;2024-01-30T06:33:13;10.02;;;7.40;;
84315;SDS011;74496;52.236;5.164;2024-01-30T06:35:40;11.65;;;7.10;;
84315;SDS011;74496;52.236;5.164;2024-01-30T06:38:07;6.70;;;6.03;;
84315;SDS011;74496;52.236;5.164;2024-01-30T06:40:35;9.88;;;7.43;;
84315;SDS011;74496;52.236;5.164;2024-01-30T06:43:03;9.70;;;6.97;;
84315;SDS011;74496;52.236;5.164;2024-01-30T06:45:30;9.70;;;6.40;;
84315;SDS011;74496;52.236;5.164;2024-01-30T06:47:57;11.43;;;7.75;;
84315;SDS011;74496;52.236;5.164;2024-01-30T06:50:24;11.67;;;7.70;;
84315;SDS011;74496;52.236;5.164;2024-01-30T06:52:51;8.48;;;6.60;;
84315;SDS011;74496;52.236;5.164;2024-01-30T06:55:17;8.35;;;6.70;;
84315;SDS011;74496;52.236;5.164;2024-01-30T06:57:45;10.52;;;6.75;;
84315;SDS011;74496;52.236;5.164;2024-01-30T07:00:13;10.88;;;6.57;;
84315;SDS011;74496;52.236;5.164;2024-01-30T07:02:40;8.77;;;7.37;;
84315;SDS011;74496;52.236;5.164;2024-01-30T07:05:07;11.27;;;5.90;;
84315;SDS011;74496;52.236;5.164;2024-01-30T07:07:34;8.52;;;6.78;;
84315;SDS011;74496;52.236;5.164;2024-01-30T07:10:01;10.68;;;7.07;;
84315;SDS011;74496;52.236;5.164;2024-01-30T07:12:27;10.18;;;7.00;;
84315;SDS011;74496;52.236;5.164;2024-01-30T07:14:56;8.77;;;7.00;;
84315;SDS011;74496;52.236;5.164;2024-01-30T07:17:24;9.05;;;6.90;;
84315;SDS011;74496;52.236;5.164;2024-01-30T07:19:51;12.43;;;7.32;;
84315;SDS011;74496;52.236;5.164;2024-01-30T07:22:18;8.25;;;6.78;;
84315;SDS011;74496;52.236;5.164;2024-01-30T07:24:44;9.77;;;6.90;;
84315;SDS011;74496;52.236;5.164;2024-01-30T07:27:13;9.07;;;6.37;;
84315;SDS011;74496;52.236;5.164;2024-01-30T07:29:40;9.18;;;6.40;;
84315;SDS011;74496;52.236;5.164;2024-01-30T07:32:10;12.85;;;7.28;;
84315;SDS011;74496;52.236;5.164;2024-01-30T07:34:36;9.23;;;6.97;;
84315;SDS011;74496;52.236;5.164;2024-01-30T07:37:03;9.32;;;7.45;;
84315;SDS011;74496;52.236;5.164;2024-01-30T07:39:29;11.70;;;6.87;;
84315;SDS011;74496;52.236;5.164;2024-01-30T07:41:56;10.95;;;6.43;;
84315;SDS011;74496;52.236;5.164;2024-01-30T07:44:23;11.45;;;6.78;;
84315;SDS011;74496;52.236;5.164;2024-01-30T07:46:50;9.73;;;5.38;;
84315;SDS011;74496;52.236;5.164;2024-01-30T07:49:18;13.30;;;6.82;;
84315;SDS011;74496;52.236;5.164;2024-01-30T07:51:45;8.10;;;6.47;;
84315;SDS011;74496;52.236;5.164;2024-01-30T07:54:12;11.35;;;7.18;;
84315;SDS011;74496;52.236;5.164;2024-01-30T07:56:39;14.10;;;6.68;;
84315;SDS011;74496;52.236;5.164;2024-01-30T07:59:09;10.10;;;7.05;;
84315;SDS011;74496;52.236;5.164;2024-01-30T08:01:35;10.75;;;6.55;;
84315;SDS011;74496;52.236;5.164;2024-01-30T08:04:02;10.20;;;6.97;;
84315;SDS011;74496;52.236;5.164;2024-01-30T08:06:31;12.30;;;7.20;;
84315;SDS011;74496;52.236;5.164;2024-01-30T08:08:57;8.98;;;6.93;;
84315;SDS011;74496;52.236;5.164;2024-01-30T08:11:24;9.77;;;6.40;;
84315;SDS011;74496;52.236;5.164;2024-01-30T08:13:52;12.35;;;6.57;;
84315;SDS011;74496;52.236;5.164;2024-01-30T08:16:19;11.27;;;5.70;;
84315;SDS011;74496;52.236;5.164;2024-01-30T08:18:45;15.20;;;8.43;;
84315;SDS011;74496;52.236;5.164;2024-01-30T08:21:12;15.23;;;7.15;;
84315;SDS011;74496;52.236;5.164;2024-01-30T08:23:40;9.63;;;6.55;;
84315;SDS011;74496;52.236;5.164;2024-01-30T08:26:08;7.72;;;6.22;;
84315;SDS011;74496;52.236;5.164;2024-01-30T08:28:34;9.03;;;6.97;;
84315;SDS011;74496;52.236;5.164;2024-01-30T08:31:01;9.88;;;5.93;;
84315;SDS011;74496;52.236;5.164;2024-01-30T08:33:28;10.35;;;6.03;;
84315;SDS011;74496;52.236;5.164;2024-01-30T08:35:54;11.73;;;6.30;;
84315;SDS011;74496;52.236;5.164;2024-01-30T08:38:21;11.02;;;6.43;;
84315;SDS011;74496;52.236;5.164;2024-01-30T08:40:49;12.30;;;6.97;;
84315;SDS011;74496;52.236;5.164;2024-01-30T08:43:16;13.63;;;6.32;;
84315;SDS011;74496;52.236;5.164;2024-01-30T08:45:42;8.18;;;5.38;;
84315;SDS011;74496;52.236;5.164;2024-01-30T08:48:09;10.40;;;5.88;;
84315;SDS011;74496;52.236;5.164;2024-01-30T08:50:36;19.00;;;5.97;;
84315;SDS011;74496;52.236;5.164;2024-01-30T08:53:03;10.17;;;6.77;;
84315;SDS011;74496;52.236;5.164;2024-01-30T08:55:29;15.05;;;6.78;;
84315;SDS011;74496;52.236;5.164;2024-01-30T08:57:57;7.18;;;5.80;;
84315;SDS011;74496;52.236;5.164;2024-01-30T09:00:25;9.98;;;6.00;;
84315;SDS011;74496;52.236;5.164;2024-01-30T09:02:52;10.43;;;6.15;;
84315;SDS011;74496;52.236;5.164;2024-01-30T09:05:19;11.17;;;5.77;;
84315;SDS011;74496;52.236;5.164;2024-01-30T09:07:47;8.02;;;5.70;;
84315;SDS011;74496;52.236;5.164;2024-01-30T09:10:14;11.55;;;6.15;;
84315;SDS011;74496;52.236;5.164;2024-01-30T09:12:41;9.30;;;5.90;;
84315;SDS011;74496;52.236;5.164;2024-01-30T09:15:09;9.93;;;5.85;;
84315;SDS011;74496;52.236;5.164;2024-01-30T09:17:36;14.83;;;6.70;;
84315;SDS011;74496;52.236;5.164;2024-01-30T09:20:03;10.50;;;6.03;;
84315;SDS011;74496;52.236;5.164;2024-01-30T09:22:31;8.73;;;5.53;;
84315;SDS011;74496;52.236;5.164;2024-01-30T09:24:57;8.82;;;6.03;;
84315;SDS011;74496;52.236;5.164;2024-01-30T09:27:24;9.93;;;5.85;;
84315;SDS011;74496;52.236;5.164;2024-01-30T09:29:51;12.37;;;6.93;;
84315;SDS011;74496;52.236;5.164;2024-01-30T09:32:19;11.68;;;6.63;;
84315;SDS011;74496;52.236;5.164;2024-01-30T09:34:46;13.23;;;6.25;;
84315;SDS011;74496;52.236;5.164;2024-01-30T09:37:12;10.35;;;5.90;;
84315;SDS011;74496;52.236;5.164;2024-01-30T09:39:40;8.65;;;5.75;;
84315;SDS011;74496;52.236;5.164;2024-01-30T09:42:09;16.70;;;6.90;;
84315;SDS011;74496;52.236;5.164;2024-01-30T09:44:44;10.02;;;7.18;;
84315;SDS011;74496;52.236;5.164;2024-01-30T09:47:13;10.27;;;6.57;;
84315;SDS011;74496;52.236;5.164;2024-01-30T09:49:45;16.73;;;6.80;;
84315;SDS011;74496;52.236;5.164;2024-01-30T09:52:12;8.18;;;6.30;;
84315;SDS011;74496;52.236;5.164;2024-01-30T09:54:39;13.23;;;6.73;;
84315;SDS011;74496;52.236;5.164;2024-01-30T09:57:07;8.65;;;6.40;;
84315;SDS011;74496;52.236;5.164;2024-01-30T09:59:34;11.15;;;6.15;;
84315;SDS011;74496;52.236;5.164;2024-01-30T10:02:01;11.13;;;6.35;;
84315;SDS011;74496;52.236;5.164;2024-01-30T10:04:29;8.85;;;5.70;;
84315;SDS011;74496;52.236;5.164;2024-01-30T10:06:57;11.13;;;6.00;;
84315;SDS011;74496;52.236;5.164;2024-01-30T10:09:26;9.70;;;6.50;;
84315;SDS011;74496;52.236;5.164;2024-01-30T10:11:53;9.57;;;5.90;;
84315;SDS011;74496;52.236;5.164;2024-01-30T10:14:19;9.30;;;6.20;;
84315;SDS011;74496;52.236;5.164;2024-01-30T10:16:46;11.57;;;5.90;;
84315;SDS011;74496;52.236;5.164;2024-01-30T10:19:13;17.57;;;6.27;;
84315;SDS011;74496;52.236;5.164;2024-01-30T10:21:40;16.50;;;6.28;;
84315;SDS011;74496;52.236;5.164;2024-01-30T10:24:08;10.88;;;5.60;;
84315;SDS011;74496;52.236;5.164;2024-01-30T10:26:38;13.77;;;5.43;;
84315;SDS011;74496;52.236;5.164;2024-01-30T10:29:04;9.15;;;5.07;;
84315;SDS011;74496;52.236;5.164;2024-01-30T10:31:31;11.70;;;4.50;;
84315;SDS011;74496;52.236;5.164;2024-01-30T10:33:58;13.20;;;4.22;;
84315;SDS011;74496;52.236;5.164;2024-01-30T10:36:27;7.40;;;4.10;;
84315;SDS011;74496;52.236;5.164;2024-01-30T10:38:55;10.82;;;3.67;;
84315;SDS011;74496;52.236;5.164;2024-01-30T10:41:27;8.90;;;3.25;;
84315;SDS011;74496;52.236;5.164;2024-01-30T10:43:58;8.70;;;3.43;;
84315;SDS011;74496;52.236;5.164;2024-01-30T10:46:30;10.48;;;3.42;;
84315;SDS011;74496;52.236;5.164;2024-01-30T10:48:59;5.72;;;3.30;;
84315;SDS011;74496;52.236;5.164;2024-01-30T10:51:27;6.38;;;3.15;;
84315;SDS011;74496;52.236;5.164;2024-01-30T10:53:56;10.23;;;3.17;;
84315;SDS011;74496;52.236;5.164;2024-01-30T10:56:23;7.07;;;2.93;;
84315;SDS011;74496;52.236;5.164;2024-01-30T10:58:52;6.93;;;3.33;;
84315;SDS011;74496;52.236;5.164;2024-01-30T11:01:20;6.72;;;2.85;;
84315;SDS011;74496;52.236;5.164;2024-01-30T11:03:48;4.28;;;2.30;;
84315;SDS011;74496;52.236;5.164;2024-01-30T11:06:17;10.90;;;2.33;;
84315;SDS011;74496;52.236;5.164;2024-01-30T11:08:44;6.80;;;2.23;;
84315;SDS011;74496;52.236;5.164;2024-01-30T11:11:11;6.03;;;1.80;;
84315;SDS011;74496;52.236;5.164;2024-01-30T11:13:38;11.25;;;2.00;;
84315;SDS011;74496;52.236;5.164;2024-01-30T11:16:07;4.53;;;1.67;;
84315;SDS011;74496;52.236;5.164;2024-01-30T11:18:37;4.80;;;1.67;;
84315;SDS011;74496;52.236;5.164;2024-01-30T11:21:04;4.07;;;1.50;;
84315;SDS011;74496;52.236;5.164;2024-01-30T11:23:33;2.97;;;1.73;;
84315;SDS011;74496;52.236;5.164;2024-01-30T11:26:00;4.68;;;1.70;;
84315;SDS011;74496;52.236;5.164;2024-01-30T11:28:31;4.57;;;1.77;;
84315;SDS011;74496;52.236;5.164;2024-01-30T11:31:03;6.30;;;2.00;;
84315;SDS011;74496;52.236;5.164;2024-01-30T11:33:31;4.50;;;2.17;;
84315;SDS011;74496;52.236;5.164;2024-01-30T11:35:59;4.40;;;1.98;;
84315;SDS011;74496;52.236;5.164;2024-01-30T11:38:27;2.92;;;2.03;;
84315;SDS011;74496;52.236;5.164;2024-01-30T11:40:54;3.20;;;2.35;;
84315;SDS011;74496;52.236;5.164;2024-01-30T11:43:22;4.72;;;2.00;;
84315;SDS011;74496;52.236;5.164;2024-01-30T11:45:50;2.90;;;2.17;;
84315;SDS011;74496;52.236;5.164;2024-01-30T11:48:17;5.78;;;2.60;;
84315;SDS011;74496;52.236;5.164;2024-01-30T11:50:45;5.53;;;2.58;;
84315;SDS011;74496;52.236;5.164;2024-01-30T11:53:11;4.20;;;2.15;;
84315;SDS011;74496;52.236;5.164;2024-01-30T11:55:38;3.42;;;1.88;;
84315;SDS011;74496;52.236;5.164;2024-01-30T11:58:05;4.47;;;1.73;;
84315;SDS011;74496;52.236;5.164;2024-01-30T12:00:32;3.83;;;1.42;;
84315;SDS011;74496;52.236;5.164;2024-01-30T12:02:59;2.80;;;1.30;;
84315;SDS011;74496;52.236;5.164;2024-01-30T12:05:27;2.05;;;1.10;;
84315;SDS011;74496;52.236;5.164;2024-01-30T12:07:55;3.00;;;1.27;;
84315;SDS011;74496;52.236;5.164;2024-01-30T12:10:24;4.73;;;1.57;;
84315;SDS011;74496;52.236;5.164;2024-01-30T12:12:50;4.05;;;1.25;;
84315;SDS011;74496;52.236;5.164;2024-01-30T12:15:18;4.20;;;1.23;;
84315;SDS011;74496;52.236;5.164;2024-01-30T12:17:47;12.20;;;1.38;;
84315;SDS011;74496;52.236;5.164;2024-01-30T12:20:14;6.88;;;1.30;;
84315;SDS011;74496;52.236;5.164;2024-01-30T12:22:42;3.90;;;1.20;;
84315;SDS011;74496;52.236;5.164;2024-01-30T12:25:11;2.53;;;1.10;;
84315;SDS011;74496;52.236;5.164;2024-01-30T12:27:39;2.05;;;1.02;;
84315;SDS011;74496;52.236;5.164;2024-01-30T12:30:08;7.22;;;1.13;;
84315;SDS011;74496;52.236;5.164;2024-01-30T12:32:36;4.07;;;1.30;;
84315;SDS011;74496;52.236;5.164;2024-01-30T12:35:03;5.87;;;1.10;;
84315;SDS011;74496;52.236;5.164;2024-01-30T12:37:33;6.78;;;1.15;;
84315;SDS011;74496;52.236;5.164;2024-01-30T12:39:59;4.90;;;1.20;;
84315;SDS011;74496;52.236;5.164;2024-01-30T12:42:28;2.72;;;0.93;;
84315;SDS011;74496;52.236;5.164;2024-01-30T12:44:56;10.82;;;1.42;;
84315;SDS011;74496;52.236;5.164;2024-01-30T12:47:24;4.47;;;1.07;;
84315;SDS011;74496;52.236;5.164;2024-01-30T12:49:51;6.00;;;1.30;;
84315;SDS011;74496;52.236;5.164;2024-01-30T12:52:18;6.07;;;1.02;;
84315;SDS011;74496;52.236;5.164;2024-01-30T12:54:46;8.25;;;1.30;;
84315;SDS011;74496;52.236;5.164;2024-01-30T12:57:12;5.22;;;1.40;;
84315;SDS011;74496;52.236;5.164;2024-01-30T12:59:40;4.20;;;1.20;;
84315;SDS011;74496;52.236;5.164;2024-01-30T13:02:07;2.13;;;0.93;;
84315;SDS011;74496;52.236;5.164;2024-01-30T13:04:34;6.57;;;1.15;;
84315;SDS011;74496;52.236;5.164;2024-01-30T13:07:01;5.55;;;1.27;;
84315;SDS011;74496;52.236;5.164;2024-01-30T13:09:29;5.72;;;1.40;;
84315;SDS011;74496;52.236;5.164;2024-01-30T13:11:56;3.20;;;1.13;;
84315;SDS011;74496;52.236;5.164;2024-01-30T13:14:23;5.05;;;1.27;;
84315;SDS011;74496;52.236;5.164;2024-01-30T13:16:51;4.55;;;1.20;;
84315;SDS011;74496;52.236;5.164;2024-01-30T13:19:18;6.43;;;1.40;;
84315;SDS011;74496;52.236;5.164;2024-01-30T13:21:45;4.25;;;0.98;;
84315;SDS011;74496;52.236;5.164;2024-01-30T13:24:12;2.47;;;1.10;;
84315;SDS011;74496;52.236;5.164;2024-01-30T13:26:39;1.83;;;1.17;;
84315;SDS011;74496;52.236;5.164;2024-01-30T13:29:09;4.28;;;1.25;;
84315;SDS011;74496;52.236;5.164;2024-01-30T13:31:36;7.50;;;1.30;;
84315;SDS011;74496;52.236;5.164;2024-01-30T13:34:05;4.15;;;1.13;;
84315;SDS011;74496;52.236;5.164;2024-01-30T13:36:33;7.33;;;1.50;;
84315;SDS011;74496;52.236;5.164;2024-01-30T13:38:59;5.25;;;1.40;;
84315;SDS011;74496;52.236;5.164;2024-01-30T13:41:26;8.60;;;1.38;;
84315;SDS011;74496;52.236;5.164;2024-01-30T13:43:54;5.65;;;1.58;;
84315;SDS011;74496;52.236;5.164;2024-01-30T13:46:21;4.85;;;0.98;;
84315;SDS011;74496;52.236;5.164;2024-01-30T13:48:48;4.40;;;1.37;;
84315;SDS011;74496;52.236;5.164;2024-01-30T13:51:16;4.25;;;1.15;;
84315;SDS011;74496;52.236;5.164;2024-01-30T13:53:43;4.30;;;1.80;;
84315;SDS011;74496;52.236;5.164;2024-01-30T13:56:09;6.07;;;1.48;;
84315;SDS011;74496;52.236;5.164;2024-01-30T13:58:37;2.10;;;1.10;;
84315;SDS011;74496;52.236;5.164;2024-01-30T14:01:05;2.63;;;1.10;;
84315;SDS011;74496;52.236;5.164;2024-01-30T14:03:31;6.72;;;1.45;;
84315;SDS011;74496;52.236;5.164;2024-01-30T14:05:58;5.05;;;1.45;;
84315;SDS011;74496;52.236;5.164;2024-01-30T14:08:27;3.25;;;1.20;;
84315;SDS011;74496;52.236;5.164;2024-01-30T14:10:55;4.13;;;1.58;;
84315;SDS011;74496;52.236;5.164;2024-01-30T14:13:21;4.57;;;1.30;;
84315;SDS011;74496;52.236;5.164;2024-01-30T14:15:50;3.53;;;1.35;;
84315;SDS011;74496;52.236;5.164;2024-01-30T14:18:16;3.47;;;1.25;;
84315;SDS011;74496;52.236;5.164;2024-01-30T14:20:43;6.93;;;1.58;;
84315;SDS011;74496;52.236;5.164;2024-01-30T14:23:11;3.55;;;1.08;;
84315;SDS011;74496;52.236;5.164;2024-01-30T14:25:40;6.00;;;1.17;;
84315;SDS011;74496;52.236;5.164;2024-01-30T14:28:06;4.25;;;1.10;;
84315;SDS011;74496;52.236;5.164;2024-01-30T14:30:33;2.17;;;1.10;;
84315;SDS011;74496;52.236;5.164;2024-01-30T14:33:00;1.73;;;1.23;;
84315;SDS011;74496;52.236;5.164;2024-01-30T14:35:27;2.08;;;1.15;;
84315;SDS011;74496;52.236;5.164;2024-01-30T14:37:54;3.60;;;1.20;;
84315;SDS011;74496;52.236;5.164;2024-01-30T14:40:23;1.83;;;1.20;;